createdAt,value
2022-12-17T17:08:01.254Z,83.77
2022-12-17T17:10:28.977Z,99.53
2022-12-17T17:12:56.420Z,97.40
2022-12-17T17:15:23.520Z,84.60
2022-12-17T17:17:54.691Z,63.30
2022-12-17T17:20:23.435Z,48.00
2022-12-17T17:22:50.341Z,37.77
2022-12-17T17:25:17.258Z,32.93
2022-12-17T17:27:44.285Z,35.10
2022-12-17T17:30:12.166Z,32.53
2022-12-17T17:32:39.074Z,29.93
2022-12-17T17:35:06.422Z,28.93
2022-12-17T17:37:33.233Z,29.73
2022-12-17T17:40:00.094Z,31.13
2022-12-17T17:42:26.971Z,35.83
2022-12-17T17:44:53.906Z,31.55
2022-12-17T17:47:20.734Z,37.47
2022-12-17T17:49:47.594Z,37.30
2022-12-17T17:52:14.472Z,38.20
2022-12-17T17:54:41.472Z,36.30
2022-12-17T17:57:09.275Z,34.53
2022-12-17T17:59:36.653Z,31.15
2022-12-17T18:02:04.216Z,34.88
2022-12-17T18:04:31.738Z,34.50
2022-12-17T18:09:45.658Z,33.47
2022-12-17T18:12:31.284Z,35.40
2022-12-17T18:15:14.180Z,31.40
2022-12-17T18:17:42.213Z,33.63
2022-12-17T18:20:10.117Z,33.58
2022-12-17T18:22:37.694Z,31.20
2022-12-17T18:25:05.543Z,28.60
2022-12-17T18:27:32.785Z,30.55
2022-12-17T18:29:59.675Z,30.77
2022-12-17T18:32:26.817Z,32.97
2022-12-17T18:34:53.888Z,31.33
2022-12-17T18:37:20.911Z,30.85
2022-12-17T18:39:49.292Z,28.95
2022-12-17T18:42:34.671Z,31.42
2022-12-17T18:45:02.769Z,30.98
2022-12-17T18:47:29.915Z,33.08
2022-12-17T18:49:57.336Z,34.47
2022-12-17T18:52:24.431Z,33.17
2022-12-17T18:54:51.451Z,33.45
2022-12-17T18:57:18.377Z,28.17
2022-12-17T18:59:46.054Z,29.75
2022-12-17T19:02:14.091Z,29.45
2022-12-17T19:04:41.357Z,30.45
2022-12-17T19:07:08.259Z,29.85
2022-12-17T19:09:36.383Z,27.63
2022-12-17T19:12:05.203Z,30.13
2022-12-17T19:14:32.514Z,33.60
2022-12-17T19:16:59.975Z,28.17
2022-12-17T19:19:27.263Z,28.67
2022-12-17T19:21:55.935Z,29.63
2022-12-17T19:24:23.831Z,31.67
2022-12-17T19:26:51.842Z,31.67
2022-12-17T19:29:20.666Z,30.85
2022-12-17T19:31:48.588Z,31.23
2022-12-17T19:34:17.528Z,35.58
2022-12-17T19:36:45.590Z,30.88
2022-12-17T19:39:17.792Z,29.67
2022-12-17T19:41:45.159Z,28.77
2022-12-17T19:44:14.838Z,29.67
2022-12-17T19:46:42.634Z,30.73
2022-12-17T19:49:12.752Z,27.63
2022-12-17T19:51:43.177Z,28.20
2022-12-17T19:54:12.602Z,27.63
2022-12-17T19:56:40.309Z,27.50
2022-12-17T19:59:08.460Z,30.25
2022-12-17T20:01:42.830Z,27.58
2022-12-17T20:04:12.322Z,30.10
2022-12-17T20:06:39.234Z,29.00
2022-12-17T20:09:07.122Z,26.42
2022-12-17T20:11:34.957Z,31.30
2022-12-17T20:14:09.543Z,28.83
2022-12-17T20:16:48.141Z,29.25
2022-12-17T20:19:18.427Z,27.10
2022-12-17T20:21:46.687Z,26.73
2022-12-17T20:24:14.447Z,28.63
2022-12-17T20:26:41.904Z,25.83
2022-12-17T20:29:09.699Z,28.80
2022-12-17T20:31:37.302Z,25.00
2022-12-17T20:34:06.232Z,29.50
2022-12-17T20:36:33.752Z,28.13
2022-12-17T20:39:01.442Z,25.08
2022-12-17T20:41:30.619Z,26.77
2022-12-17T20:43:57.742Z,29.90
2022-12-17T20:46:25.784Z,25.45
2022-12-17T20:48:53.654Z,25.65
2022-12-17T20:51:23.596Z,25.08
2022-12-17T20:53:52.128Z,28.27
2022-12-17T20:56:26.207Z,28.55
2022-12-17T20:58:58.955Z,23.42
2022-12-17T21:01:28.324Z,21.90
2022-12-17T21:03:58.177Z,29.42
2022-12-17T21:06:28.055Z,22.75
2022-12-17T21:08:56.324Z,22.67
2022-12-17T21:11:26.294Z,23.33
2022-12-17T21:13:54.249Z,22.77
2022-12-17T21:16:24.351Z,22.15
2022-12-17T21:18:53.357Z,24.38
2022-12-17T21:21:25.204Z,19.35
2022-12-17T21:23:52.405Z,25.02
2022-12-17T21:26:25.350Z,22.00
2022-12-17T21:28:53.855Z,21.83
2022-12-17T21:31:22.421Z,21.80
2022-12-17T21:33:50.814Z,20.77
2022-12-17T21:36:20.212Z,19.17
2022-12-17T21:38:49.362Z,25.52
2022-12-17T21:41:25.232Z,20.30
2022-12-17T21:43:57.168Z,20.80
2022-12-17T21:46:27.142Z,19.45
2022-12-17T21:48:55.836Z,19.52
2022-12-17T21:51:23.457Z,19.92
2022-12-17T21:53:55.399Z,20.73
2022-12-17T21:56:22.505Z,20.33
2022-12-17T21:58:50.255Z,22.10
2022-12-17T22:01:19.956Z,20.55
2022-12-17T22:03:53.991Z,20.38
2022-12-17T22:06:24.076Z,20.98
2022-12-17T22:08:59.914Z,21.10
2022-12-17T22:11:30.657Z,20.38
2022-12-17T22:14:13.774Z,20.83
2022-12-17T22:16:49.706Z,20.90
2022-12-17T22:19:22.657Z,18.67
2022-12-17T22:21:54.981Z,22.50
2022-12-17T22:24:25.305Z,18.08
2022-12-17T22:26:59.548Z,19.17
2022-12-17T22:29:50.752Z,23.70
2022-12-17T22:32:36.313Z,21.00
2022-12-17T22:35:25.949Z,18.20
2022-12-17T22:39:55.398Z,20.70
2022-12-17T22:44:32.292Z,17.90
2022-12-17T22:44:51.529Z,19.15
2022-12-17T22:46:19.707Z,23.30
2022-12-17T22:48:46.751Z,20.00
2022-12-17T22:51:18.626Z,20.27
2022-12-17T22:53:53.340Z,20.15
2022-12-17T22:56:53.289Z,20.92
2022-12-17T22:59:09.014Z,20.88
2022-12-17T23:01:35.976Z,19.55
2022-12-17T23:04:03.856Z,20.67
2022-12-17T23:06:31.040Z,21.85
2022-12-17T23:08:59.118Z,19.40
2022-12-17T23:11:28.086Z,20.23
2022-12-17T23:13:55.771Z,17.80
2022-12-17T23:16:22.982Z,18.73
2022-12-17T23:18:51.388Z,16.63
2022-12-17T23:21:24.869Z,17.92
2022-12-17T23:23:53.178Z,18.48
2022-12-17T23:26:23.543Z,19.20
2022-12-17T23:29:04.261Z,18.27
2022-12-17T23:31:34.705Z,17.52
2022-12-17T23:34:01.723Z,15.85
2022-12-17T23:36:28.596Z,16.88
2022-12-17T23:38:57.128Z,17.63
2022-12-17T23:41:26.990Z,16.13
2022-12-17T23:43:54.705Z,17.33
2022-12-17T23:46:23.886Z,15.65
2022-12-17T23:48:51.521Z,17.08
2022-12-17T23:51:20.470Z,15.38
2022-12-17T23:53:47.432Z,16.45
2022-12-17T23:56:20.487Z,15.10
2022-12-17T23:58:48.225Z,16.33
